Flight Track Log - Related Links

Times and Time Zones

All times are in EDT time to prevent confusion due to time zone crossing. See the N917LJ flight status page for this flight to view local times or setup timezone preferences in your user account.

Time Position Orientation Groundspeed Altitude Reporting Facility
EDT Latitude Longitude Course Direction KTS MPH feet Rate Location/Type
Thu 04:28:32 PM 33.7130 -84.3850 174° South 211 243 5,900  Level FlightAware ADS-B
Thu 04:28:37 PM 33.7080 -84.3840 171° South 214 246 5,900  Level FlightAware ADS-B
Thu 04:29:17 PM 33.6720 -84.3840 180° South 209 241 5,900  Level FlightAware ADS-B
Thu 04:29:27 PM 33.6590 -84.3840 180° South 210 242 5,900  Level FlightAware ADS-B
Thu 04:29:57 PM 33.6290 -84.3850 182° South 218 251 5,900  Level FlightAware ADS-B
Thu 04:30:02 PM 33.6260 -84.3850 180° South 218 251 5,900  Level FlightAware ADS-B
Thu 04:30:32 PM 33.5930 -84.3850 180° South 226 260 5,900 -120 Level FlightAware ADS-B
Thu 04:30:52 PM 33.5720 -84.3850 180° South 231 266 5,800 -150 Descending FlightAware ADS-B
Thu 04:31:12 PM 33.5550 -84.3850 180° South 226 260 5,800 1,500 Level FlightAware ADS-B
Thu 04:32:32 PM 33.4660 -84.3710 173° South 230 265 8,300 1,429 Climbing FlightAware ADS-B
Thu 04:32:57 PM 33.4430 -84.3640 166° South 230 265 8,300 2,824 Level FlightAware ADS-B
Thu 04:33:57 PM 33.3670 -84.3430 167° South 300 345 12,300 2,653 Climbing FlightAware ADS-B
Thu 04:34:32 PM 33.3240 -84.3310 167° South 297 342 12,500 1,050 Climbing FlightAware ADS-B
Thu 04:35:17 PM 33.2560 -84.3120 167° South 311 358 13,700 847 Climbing FlightAware ADS-B
Thu 04:35:57 PM 33.2090 -84.2980 166° South 311 358 13,700  Level FlightAware ADS-B
Thu 04:36:37 PM 33.1610 -84.2840 166° South 311 358 13,700 4,721 Level FlightAware ADS-B
Thu 04:36:58 PM 33.0928 -84.2619 166° South 348 400 18,500 5,556 Climbing Atlanta Center
Thu 04:37:58 PM 33.0114 -84.2369 166° South 343 395 21,200 2,400 Climbing Atlanta Center
Thu 04:38:58 PM 32.9217 -84.2094 166° South 337 388 23,300 2,150 Climbing Atlanta Center
Thu 04:39:58 PM 32.8172 -84.1772 165° South 337 388 25,500 2,300 Climbing Atlanta Center
Thu 04:40:58 PM 32.7192 -84.1450 165° South 348 400 27,900 2,400 Climbing Atlanta Center
Thu 04:41:58 PM 32.6233 -84.1103 163° South 354 407 30,300 2,450 Climbing Atlanta Center
Thu 04:42:58 PM 32.5272 -84.0831 167° South 359 413 32,800 2,400 Climbing Atlanta Center
Thu 04:43:58 PM 32.4311 -84.0536 166° South 354 407 35,100 2,050 Climbing Atlanta Center
Thu 04:44:58 PM 32.3372 -84.0217 164° South 354 407 36,900 1,650 Climbing Atlanta Center
Thu 04:45:58 PM 32.2433 -83.9922 165° South 354 407 38,400 1,249 Climbing Atlanta Center
Thu 04:48:15 PM 32.0369 -83.9267 165° South 351 404 41,000 796 Climbing Jacksonville Center
Thu 04:49:14 PM 31.9414 -83.8889 161° South 357 411 41,000  Level Jacksonville Center
Thu 04:50:14 PM 31.8247 -83.8436 162° South 391 450 41,000  Level Jacksonville Center
Thu 04:51:15 PM 31.7103 -83.8036 163° South 421 484 41,000  Level Jacksonville Center
Thu 04:52:14 PM 31.5956 -83.7608 162° South 426 490 41,000  Level Jacksonville Center
Thu 04:53:14 PM 31.4747 -83.7233 165° South 437 503 41,000  Level Jacksonville Center
Thu 04:54:15 PM 31.3603 -83.6808 162° South 437 503 41,000  Level Jacksonville Center
Thu 04:55:14 PM 31.2436 -83.6386 163° South 437 503 41,000  Level Jacksonville Center
Thu 04:56:14 PM 31.1269 -83.5989 164° South 437 503 41,000  Level Jacksonville Center
Thu 04:57:15 PM 31.0081 -83.5567 163° South 437 503 41,000  Level Jacksonville Center
Thu 04:58:14 PM 30.8872 -83.5122 162° South 437 503 41,000  Level Jacksonville Center
Thu 04:59:14 PM 30.7725 -83.4706 163° South 437 503 41,000  Level Jacksonville Center
Thu 05:00:15 PM 30.6558 -83.4311 164° South 437 503 41,000  Level Jacksonville Center
Thu 05:01:14 PM 30.5369 -83.3894 163° South 437 503 41,000  Level Jacksonville Center
Thu 05:02:14 PM 30.4161 -83.3478 163° South 437 503 41,000  Level Jacksonville Center
Thu 05:03:14 PM 30.2950 -83.3086 164° South 442 509 41,000  Level Jacksonville Center
Thu 05:04:14 PM 30.1761 -83.2650 162° South 448 516 41,000  Level Jacksonville Center
Thu 05:05:14 PM 30.0531 -83.2236 164° South 448 516 41,000  Level Jacksonville Center
Thu 05:06:15 PM 29.9425 -83.1875 164° South 459 528 41,000  Level Jacksonville Center
Thu 05:12:27 PM 29.1680 -82.9180 164° South 455 524 41,000  Level FlightAware ADS-B
Thu 05:13:37 PM 29.0250 -82.8700 164° South 455 524 41,000  Level FlightAware ADS-B
Thu 05:14:42 PM 28.8900 -82.8240 163° South 456 525 41,000  Level FlightAware ADS-B
Thu 05:15:22 PM 28.8070 -82.7960 164° South 457 526 41,000  Level FlightAware ADS-B
Thu 05:16:22 PM 28.6910 -82.7570 164° South 466 536 41,000  Level FlightAware ADS-B
Thu 05:17:02 PM 28.5980 -82.7260 164° South 467 537 41,000  Level FlightAware ADS-B
Thu 05:17:47 PM 28.5030 -82.6940 164° South 468 539 41,000  Level FlightAware ADS-B
Thu 05:18:32 PM 28.4100 -82.6630 164° South 469 540 41,000  Level FlightAware ADS-B
Thu 05:19:12 PM 28.3270 -82.6350 163° South 470 541 41,000  Level FlightAware ADS-B
Thu 05:19:57 PM 28.2340 -82.6040 164° South 472 543 41,000  Level FlightAware ADS-B
Thu 05:20:37 PM 28.1470 -82.5750 164° South 473 544 41,000  Level FlightAware ADS-B
Thu 05:21:17 PM 28.0650 -82.5480 164° South 473 544 41,000  Level FlightAware ADS-B
Thu 05:22:02 PM 27.9690 -82.5160 164° South 474 545 41,000  Level FlightAware ADS-B
Thu 05:22:42 PM 27.8850 -82.4850 162° South 477 549 41,000 -494 Level FlightAware ADS-B
Thu 05:23:27 PM 27.7930 -82.4510 162° South 480 552 40,300 -1,341 Descending FlightAware ADS-B
Thu 05:24:07 PM 27.7060 -82.4190 162° South 471 542 39,100 -1,875 Descending FlightAware ADS-B
Thu 05:24:47 PM 27.6270 -82.3900 162° South 450 518 37,800 -1,976 Descending FlightAware ADS-B
Thu 05:25:32 PM 27.5370 -82.3530 160° South 453 521 36,300 -1,976 Descending FlightAware ADS-B
Thu 05:26:12 PM 27.4680 -82.2990 145° Southeast 477 549 35,000 -1,906 Descending FlightAware ADS-B
Thu 05:26:57 PM 27.3890 -82.2340 144° Southeast 471 542 33,600 -2,188 Descending FlightAware ADS-B
Thu 05:27:37 PM 27.3180 -82.1760 144° Southeast 446 513 31,900 -2,329 Descending FlightAware ADS-B
Thu 05:28:22 PM 27.2460 -82.1160 143° Southeast 459 528 30,300 -2,259 Descending FlightAware ADS-B
Thu 05:29:02 PM 27.1720 -82.0550 144° Southeast 457 526 28,700 -2,325 Descending FlightAware ADS-B
Thu 05:29:42 PM 27.1050 -82.0000 144° Southeast 448 516 27,200 -2,188 Descending FlightAware ADS-B
Thu 05:30:27 PM 27.0320 -81.9400 144° Southeast 434 499 25,600 -2,118 Descending FlightAware ADS-B
Thu 05:31:07 PM 26.9720 -81.8830 140° Southeast 421 484 24,200 -1,920 Descending FlightAware ADS-B
Thu 05:31:42 PM 26.9270 -81.8360 137° Southeast 408 470 23,200 -1,908 Descending FlightAware ADS-B
Thu 05:34:22 PM 26.7070 -81.6020 136° Southeast 390 449 18,000 -1,522 Descending FlightAware ADS-B
Thu 05:35:07 PM 26.6490 -81.5410 137° Southeast 383 441 18,000  Level FlightAware ADS-B
Thu 05:35:47 PM 26.6010 -81.4900 136° Southeast 383 441 18,000 -975 Level FlightAware ADS-B
Thu 05:36:27 PM 26.5500 -81.4360 137° Southeast 378 435 16,700 -1,200 Descending FlightAware ADS-B
Thu 05:37:12 PM 26.4970 -81.3790 136° Southeast 377 434 16,300 -282 Descending FlightAware ADS-B
Thu 05:37:52 PM 26.4540 -81.3330 136° Southeast 377 434 16,300  Level FlightAware ADS-B
Thu 05:38:32 PM 26.4110 -81.2870 136° Southeast 377 434 16,300  Level FlightAware ADS-B
Thu 05:39:12 PM 26.3690 -81.2410 136° Southeast 377 434 16,300  Level FlightAware ADS-B
Thu 05:39:52 PM 26.3260 -81.1950 136° Southeast 377 434 16,300  Level FlightAware ADS-B
Thu 05:40:32 PM 26.2830 -81.1490 136° Southeast 377 434 16,300 -3,714 Level FlightAware ADS-B
Thu 05:41:37 PM 26.1810 -81.0480 138° Southeast 329 379 9,800 -4,255 Descending FlightAware ADS-B
Thu 05:42:22 PM 26.1360 -81.0010 137° Southeast 285 328 8,500 -1,714 Descending FlightAware ADS-B
Thu 05:42:47 PM 26.1130 -80.9730 132° Southeast 272 313 7,800 -1,650 Descending FlightAware ADS-B
Thu 05:43:02 PM 26.1050 -80.9520 113° Southeast 271 312 7,400 -1,400 Descending FlightAware ADS-B
Thu 05:43:17 PM 26.1020 -80.9340 101° East 268 308 7,100 -1,371 Descending FlightAware ADS-B
Thu 05:43:37 PM 26.0960 -80.9070 104° East 265 305 6,600 -1,309 Descending FlightAware ADS-B
Thu 05:44:12 PM 26.0860 -80.8590 103° East 269 310 5,900 -840 Descending FlightAware ADS-B
Thu 05:44:27 PM 26.0810 -80.8380 105° East 271 312 5,900  Level FlightAware ADS-B
Thu 05:44:52 PM 26.0780 -80.8060 96° East 281 323 5,900  Level FlightAware ADS-B
Thu 05:45:22 PM 26.0790 -80.7590 89° East 285 328 5,900  Level FlightAware ADS-B
Thu 05:45:57 PM 26.0800 -80.7080 89° East 273 314 5,900  Level FlightAware ADS-B
Thu 05:46:32 PM 26.0800 -80.6610 90° East 265 305 5,900 -92 Level FlightAware ADS-B
Thu 05:47:02 PM 26.0790 -80.6200 92° East 250 288 5,800 -600 Descending FlightAware ADS-B
Thu 05:47:42 PM 26.0790 -80.5700 90° East 234 269 5,200 -675 Descending FlightAware ADS-B
Thu 05:48:22 PM 26.0790 -80.5220 90° East 235 270 4,900 -212 Descending FlightAware ADS-B
Thu 05:49:07 PM 26.0790 -80.4670 90° East 242 278 4,900 -429 Level FlightAware ADS-B
Thu 05:49:32 PM 26.0780 -80.4360 92° East 239 275 4,400 -1,200 Descending FlightAware ADS-B
Thu 05:49:42 PM 26.0780 -80.4230 90° East 234 269 4,200 -1,067 Descending FlightAware ADS-B
Thu 05:50:17 PM 26.0780 -80.3850 90° East 188 216 3,600 -1,000 Descending FlightAware ADS-B
Thu 05:50:42 PM 26.0780 -80.3620 90° East 187 215 3,200 -873 Descending FlightAware ADS-B
Thu 05:51:12 PM 26.0780 -80.3330 90° East 183 211 2,800 -933 Descending FlightAware ADS-B
Thu 05:51:27 PM 26.0780 -80.3190 90° East 184 212 2,500 -1,050 Descending FlightAware ADS-B
Thu 05:51:52 PM 26.0780 -80.2970 90° East 186 214 2,100 -1,050 Descending FlightAware ADS-B
Thu 05:52:07 PM 26.0780 -80.2810 90° East 185 213 1,800 -933 Descending FlightAware ADS-B
Thu 05:52:37 PM 26.0780 -80.2540 90° East 167 192 1,400 -764 Descending FlightAware ADS-B
Thu 05:53:02 PM 26.0770 -80.2360 94° East 146 168 1,100 -750 Descending FlightAware ADS-B
Thu 05:53:17 PM 26.0770 -80.2230 90° East 135 155 900 -686 Descending FlightAware ADS-B
Thu 05:53:37 PM 26.0770 -80.2100 90° East 122 140 700 -600 Descending FlightAware ADS-B
Thu 05:54:07 PM 26.0770 -80.1950 90° East 110 127 400 -600 Descending FlightAware ADS-B
Thu 05:54:37 PM 26.0770 -80.1770 90° East 109 125 100 -327 Descending FlightAware ADS-B
Thu 05:55:02 PM 26.0770 -80.1640 90° East 109 125 100  Level FlightAware ADS-B
Thu 06:01:00 PM 26.0667 -80.1500 180° South  Level FlightAware Approximate
Thu 06:02:00 PM 26.0726 -80.1527 180° South  Level Estimated

Login

Don't have an account? Register now (free) for customized features, flight alerts, and more!